Springfield Beckley Municipal Airport
KSGH : rendu visible

Aérodrome :











RETROUVEZ-NOUS SUR...

 
LOGIN :

S'inscrire | Disclaimer

   EN    FR    IT 

 









Légende :    VFR   VFR Marginal   IFR   IFR Intensif   IFR Très Intensif
Visi : 
Plafond : 
>= 8 km
>= 3000ft
5 à 8 km
1000 à 3000 ft
1500m à 5 km
500 à 1000 ft
800 à 1500m
200 à 500 ft
< 800m
< 200 ft
Symboles :   Orages  Brouillard  Fortes neiges  Fortes précipitations  Vent > 20 kt






- Altitude de l'aérodrome : 1051 ft


KSGH - Springfield Beckley Municipal

DERNIER METAR :
  • 272056Z AUTO 30008KT 7SM OVC009 01/00 A2992 RMK AO2 SLP143 6//// T00060000 53005 PNO $

METARs EXPIRÉS :
  • 271956Z AUTO 33009KT 7SM OVC009 01/00 A2990 RMK AO2 SLP136 T00110000 PNO $
  • 271924Z AUTO 28009KT 7SM OVC009 01/00 A2989 RMK AO2 PNO $
  • 271856Z AUTO 28008KT 7SM OVC011 01/00 A2989 RMK AO2 SLP133 T00060000 PNO $

TAF N/A



MET'MAP, la Météo Aéronautique d'un coup d'oeil ! - Copyright ORBIFLY Décembre 2007 - Disclaimer

ORBIFLY MET'MAP TEAM :

Programmation & Développement : Alexandra Zaïnal
Sur une idée originale de : Baudouin d'Aumeries
Assistance à la programmation : Marc-Olivier Méhu
Soutien technique & logistique : Manuel Goepfert

Contact : metmap@orbifly.com




SOURCES & CREDITS :

   NOAA       Earth
Advisory